This is the latest recevied weather packets stored in our database for station/object K1LBG. If no packets are shown the sender has not sent any weather packets the latest 10 day(s).
| Time | Temp. | Humidity | Pressure | Rain* | Wind** | Luminosity | Snow |
|---|---|---|---|---|---|---|---|
| 1777669320 | 17.22° C | 35% | 1008.6 hPa | 0 mm | - | - | - |
| 1777667492 | 17.78° C | 35% | 1008.5 hPa | 0 mm | - | - | - |
| 1777667198 | 17.78° C | 35% | 1008.5 hPa | 0 mm | - | - | - |
| 1777666308 | 17.78° C | 36% | 1008.4 hPa | 0 mm | - | - | - |
| 1777666016 | 17.78° C | 36% | 1008.5 hPa | 0 mm | - | - | - |
| 1777665716 | 17.78° C | 41% | 1008.5 hPa | 0 mm | - | - | - |
| 1777664805 | 17.78° C | 37% | 1008.4 hPa | 0 mm | - | - | - |
| 1777664487 | 17.78° C | 38% | 1008.5 hPa | 0 mm | - | - | - |
| 1777661794 | 16.67° C | 44% | 1008.9 hPa | 0 mm | - | - | - |
| 1777658509 | 15.56° C | 49% | 1009.2 hPa | 0 mm | - | - | - |
| 1777653397 | 14.44° C | 52% | 1009.6 hPa | 0 mm | - | - | - |
| 1777651322 | 13.89° C | 55% | 1010 hPa | 0 mm | - | - | - |
| 1777648894 | 12.78° C | 58% | 1010.1 hPa | 0 mm | - | - | - |
| 1777647709 | 12.78° C | 60% | 1010.2 hPa | 0 mm | - | - | - |
| 1777645882 | 12.78° C | 61% | 1010.3 hPa | 0 mm | - | - | - |
| 1777644408 | 13.33° C | 57% | 1010.2 hPa | 0 mm | - | - | - |
| 1777642881 | 12.22° C | 60% | 1010.2 hPa | 0 mm | - | - | - |
| 1777640811 | 11.11° C | 67% | 1010 hPa | 0 mm | - | - | - |
| 1777637796 | 10° C | 72% | 1010 hPa | 0 mm | - | - | - |
| 1777637212 | 10° C | 74% | 1009.9 hPa | 0 mm | - | - | - |
| 1777635985 | 8.89° C | 80% | 1009.8 hPa | 0 mm | - | - | - |
| 1777635416 | 8.89° C | 81% | 1009.8 hPa | 0 mm | - | - | - |
| 1777634482 | 8.33° C | 82% | 1009.7 hPa | 0 mm | - | - | - |
| 1777632433 | 7.22° C | 86% | 1009.5 hPa | 0 mm | - | - | - |
| 1777631510 | 7.22° C | 89% | 1009.4 hPa | 0 mm | - | - | - |
* Rain latest hour (hover to see other rain measurements)
** Current wind speed in m/s (hover to see current wind gust speed)